Time;durP1;ratioP1;P1;durP2;ratioP2;P2;SDS_P1;SDS_P2;PMS_P1;PMS_P2;Temp;Humidity;BMP_temperature;BMP_pressure;BME280_temperature;BME280_humidity;BME280_pressure;Samples;Min_cycle;Max_cycle;Signal;HPM_P1;HPM_P2
2023/07/31 00:00:56;;;;;;;6.47;4.20;;;;;;;22.64;72.13;99590.06;4485212;31;34322;-74
2023/07/31 00:03:23;;;;;;;6.10;4.15;;;;;;;22.90;71.11;99580.16;4495428;31;33297;-75
2023/07/31 00:05:51;;;;;;;6.07;4.30;;;;;;;23.12;69.77;99585.28;4485449;31;33542;-74
2023/07/31 00:08:18;;;;;;;6.80;4.53;;;;;;;22.79;71.28;99587.31;4490945;31;34629;-74
2023/07/31 00:10:46;;;;;;;6.43;4.90;;;;;;;22.66;71.80;99589.19;4476621;32;33803;-75
2023/07/31 00:13:14;;;;;;;6.45;4.82;;;;;;;22.81;70.98;99580.25;4483591;31;34277;-75
2023/07/31 00:15:41;;;;;;;6.28;4.22;;;;;;;22.69;71.69;99585.66;4488259;31;32979;-75
2023/07/31 00:18:09;;;;;;;7.43;4.72;;;;;;;22.70;71.60;99582.13;4490341;31;34011;-74
2023/07/31 00:20:37;;;;;;;6.50;4.32;;;;;;;22.74;71.07;99586.50;4491006;31;34564;-75
2023/07/31 00:23:04;;;;;;;5.95;4.32;;;;;;;23.01;69.90;99589.78;4480131;31;32588;-75
2023/07/31 00:25:32;;;;;;;6.53;3.83;;;;;;;22.75;71.17;99590.88;4490648;31;32742;-75
2023/07/31 00:27:59;;;;;;;6.20;4.07;;;;;;;22.45;72.99;99600.78;4492778;31;33420;-75
2023/07/31 00:30:27;;;;;;;6.78;4.40;;;;;;;22.44;73.17;99606.94;4483543;31;34613;-74
2023/07/31 00:32:54;;;;;;;6.97;4.53;;;;;;;22.69;71.82;99599.72;4487058;31;33889;-75
2023/07/31 00:35:22;;;;;;;7.18;4.40;;;;;;;22.30;73.66;99595.59;4486631;31;34473;-75
2023/07/31 00:37:50;;;;;;;8.70;5.12;;;;;;;22.31;73.81;99602.63;4494021;31;33674;-75
2023/07/31 00:40:18;;;;;;;7.50;4.72;;;;;;;22.48;72.67;99591.97;4483597;31;33587;-75
2023/07/31 00:42:45;;;;;;;7.22;4.95;;;;;;;22.57;72.44;99605.09;4482695;31;33885;-74
2023/07/31 00:45:14;;;;;;;7.10;4.80;;;;;;;22.52;72.28;99605.13;4487260;31;33564;-75
2023/07/31 00:47:42;;;;;;;6.30;4.70;;;;;;;22.48;72.76;99608.66;4497208;31;34525;-75
2023/07/31 00:50:10;;;;;;;7.67;4.80;;;;;;;22.81;71.03;99601.38;4480107;31;33789;-74
2023/07/31 00:52:38;;;;;;;7.13;4.70;;;;;;;22.73;71.26;99604.06;4489021;31;33088;-74
2023/07/31 00:55:06;;;;;;;7.53;4.87;;;;;;;22.94;70.69;99607.44;4496521;31;33828;-74
2023/07/31 00:57:34;;;;;;;7.00;4.62;;;;;;;22.79;70.80;99603.16;4471577;31;32320;-74
2023/07/31 01:00:03;;;;;;;6.37;4.40;;;;;;;22.63;71.65;99601.53;4467005;31;34621;-75
2023/07/31 01:02:31;;;;;;;6.37;4.68;;;;;;;22.50;72.24;99606.00;4489762;31;33261;-75
2023/07/31 01:04:59;;;;;;;6.62;4.75;;;;;;;22.26;73.68;99614.97;4482423;31;33559;-75
2023/07/31 01:07:39;;;;;;;6.80;4.40;;;;;;;22.03;74.94;99615.94;4478890;31;34387;-74
2023/07/31 01:10:21;;;;;;;7.12;4.40;;;;;;;22.23;74.09;99612.31;4478678;32;33094;-74
2023/07/31 01:12:50;;;;;;;7.30;4.40;;;;;;;22.17;74.28;99614.13;4466705;31;32185;-74
2023/07/31 01:15:18;;;;;;;6.22;4.22;;;;;;;22.43;72.55;99621.03;4481048;31;33387;-74
2023/07/31 01:17:45;;;;;;;7.35;4.40;;;;;;;22.17;73.70;99632.59;4490047;31;34711;-75
2023/07/31 01:20:24;;;;;;;6.50;4.03;;;;;;;22.40;72.68;99631.59;4482908;31;33086;-75
2023/07/31 01:23:13;;;;;;;7.78;4.40;;;;;;;22.73;70.32;99629.63;4486188;31;32927;-74
2023/07/31 01:25:55;;;;;;;7.03;4.30;;;;;;;22.69;70.38;99627.87;4473329;31;33013;-75
2023/07/31 01:28:33;;;;;;;6.37;4.60;;;;;;;22.35;71.66;99629.00;4494870;31;32822;-74
2023/07/31 01:31:02;;;;;;;6.30;4.20;;;;;;;22.30;72.27;99622.84;4484308;31;32831;-74
2023/07/31 01:33:30;;;;;;;6.07;4.20;;;;;;;22.24;72.57;99620.22;4485038;31;33202;-74
2023/07/31 01:35:58;;;;;;;7.00;4.20;;;;;;;21.91;74.17;99621.28;4483207;31;34620;-74
2023/07/31 01:38:25;;;;;;;7.40;4.33;;;;;;;22.03;74.22;99620.34;4485702;31;33942;-74
2023/07/31 01:40:53;;;;;;;6.28;4.20;;;;;;;21.95;74.16;99617.75;4481885;31;33484;-74
2023/07/31 01:43:25;;;;;;;6.15;4.20;;;;;;;22.13;73.38;99617.63;4484305;31;32082;-74
2023/07/31 01:45:53;;;;;;;6.60;4.20;;;;;;;22.09;73.49;99605.34;4487658;31;33242;-75
2023/07/31 01:48:20;;;;;;;6.20;3.80;;;;;;;22.25;72.49;99600.91;4483731;31;33672;-75
2023/07/31 01:50:48;;;;;;;5.60;3.60;;;;;;;22.27;72.06;99603.53;4495417;31;33975;-74
2023/07/31 01:53:16;;;;;;;7.00;3.90;;;;;;;21.97;73.18;99589.59;4475691;31;33239;-75
2023/07/31 01:55:43;;;;;;;5.20;3.40;;;;;;;22.02;72.72;99598.38;4481883;31;34198;-74
2023/07/31 01:58:11;;;;;;;6.10;3.50;;;;;;;21.88;73.82;99594.91;4484137;31;33899;-75
2023/07/31 02:00:39;;;;;;;5.72;3.45;;;;;;;21.90;73.34;99594.00;4487029;31;33685;-75
2023/07/31 02:03:07;;;;;;;6.10;3.22;;;;;;;22.18;71.78;99599.16;4483955;31;32726;-74
2023/07/31 02:05:35;;;;;;;5.40;2.97;;;;;;;22.15;70.75;99594.75;4488257;31;34677;-74
2023/07/31 02:08:03;;;;;;;4.43;2.70;;;;;;;21.83;71.24;99589.66;4491545;31;33828;-74
2023/07/31 02:10:33;;;;;;;4.28;2.60;;;;;;;22.19;69.45;99598.25;4489191;31;32786;-75
2023/07/31 02:13:00;;;;;;;4.72;2.70;;;;;;;21.94;70.10;99589.59;4488602;31;34149;-74
2023/07/31 02:15:28;;;;;;;5.57;2.72;;;;;;;22.02;69.96;99593.09;4486105;31;34388;-74
2023/07/31 02:17:55;;;;;;;5.75;2.70;;;;;;;22.09;69.19;99594.81;4493520;31;33377;-75
2023/07/31 02:20:23;;;;;;;5.00;2.70;;;;;;;22.22;68.56;99589.47;4488212;31;33433;-74
2023/07/31 02:22:51;;;;;;;4.57;2.40;;;;;;;22.13;69.15;99601.81;4483793;31;33025;-74
2023/07/31 02:25:19;;;;;;;4.82;2.50;;;;;;;22.30;67.81;99593.84;4494597;31;33280;-75
2023/07/31 02:27:46;;;;;;;4.37;2.50;;;;;;;21.79;69.87;99594.06;4487650;31;33547;-75
2023/07/31 02:30:14;;;;;;;4.25;2.50;;;;;;;22.11;68.86;99600.94;4491070;31;35505;-75
2023/07/31 02:32:42;;;;;;;5.03;2.50;;;;;;;21.91;69.30;99600.19;4481677;32;33362;-74
2023/07/31 02:35:11;;;;;;;4.10;2.60;;;;;;;22.04;69.20;99617.72;4478081;31;33221;-74
2023/07/31 02:37:38;;;;;;;5.37;2.80;;;;;;;22.07;69.28;99617.66;4480023;31;33660;-75
2023/07/31 02:40:07;;;;;;;5.20;2.37;;;;;;;21.99;69.01;99614.19;4483984;31;34035;-75
2023/07/31 02:42:34;;;;;;;4.12;2.20;;;;;;;21.92;69.21;99615.09;4469679;31;33922;-75
2023/07/31 02:45:02;;;;;;;4.35;2.47;;;;;;;21.89;69.24;99612.50;4456326;32;32413;-74
2023/07/31 02:47:30;;;;;;;4.30;2.53;;;;;;;21.79;69.85;99623.06;4482396;31;33711;-75
2023/07/31 02:49:57;;;;;;;3.90;2.50;;;;;;;21.95;68.99;99625.66;4495388;31;34391;-75
2023/07/31 02:52:25;;;;;;;4.12;2.40;;;;;;;21.77;69.74;99635.37;4483395;31;31536;-74
2023/07/31 02:54:52;;;;;;;4.80;2.43;;;;;;;21.76;69.83;99638.03;4491123;31;34300;-74
2023/07/31 02:57:20;;;;;;;4.00;2.33;;;;;;;21.66;70.02;99637.19;4488017;31;34237;-74
2023/07/31 02:59:47;;;;;;;3.72;2.17;;;;;;;21.73;70.01;99636.28;4482777;31;33758;-74
2023/07/31 03:02:15;;;;;;;6.00;2.37;;;;;;;21.86;69.22;99628.31;4489116;31;33477;-74
2023/07/31 03:04:43;;;;;;;3.78;2.30;;;;;;;21.81;69.01;99636.25;4483717;31;33870;-74
2023/07/31 03:07:10;;;;;;;4.43;2.22;;;;;;;21.88;68.92;99631.81;4488711;31;33301;-75
2023/07/31 03:09:38;;;;;;;4.30;2.40;;;;;;;21.64;69.97;99644.22;4484114;31;33608;-75
2023/07/31 03:12:06;;;;;;;4.68;2.28;;;;;;;21.75;69.34;99645.06;4484117;31;33857;-74
2023/07/31 03:14:34;;;;;;;4.45;2.10;;;;;;;21.89;68.78;99647.66;4481435;32;34505;-74
2023/07/31 03:17:02;;;;;;;4.70;2.47;;;;;;;22.13;67.29;99659.84;4485774;31;34226;-74
2023/07/31 03:19:31;;;;;;;4.85;2.20;;;;;;;22.06;67.69;99667.78;4493271;31;33830;-75
2023/07/31 03:21:59;;;;;;;4.72;2.10;;;;;;;21.63;69.49;99657.41;4484915;31;32965;-74
2023/07/31 03:24:29;;;;;;;4.47;2.30;;;;;;;21.84;68.59;99656.44;4493514;31;34450;-74
2023/07/31 03:26:56;;;;;;;4.25;2.08;;;;;;;21.65;69.35;99655.63;4488559;31;33537;-74
2023/07/31 03:29:24;;;;;;;5.32;2.28;;;;;;;21.71;69.09;99660.88;4489943;31;34479;-75
2023/07/31 03:31:52;;;;;;;5.47;2.30;;;;;;;21.74;68.81;99658.25;4483212;31;33446;-75
2023/07/31 03:34:20;;;;;;;4.85;2.22;;;;;;;21.94;67.53;99658.16;4490157;31;34241;-74
2023/07/31 03:36:47;;;;;;;5.18;2.03;;;;;;;22.04;67.15;99665.19;4482541;31;33807;-75
2023/07/31 03:39:15;;;;;;;5.12;2.22;;;;;;;22.08;66.57;99668.66;4488639;31;33537;-75
2023/07/31 03:41:43;;;;;;;5.15;2.12;;;;;;;21.85;67.59;99666.13;4482822;31;33365;-75
2023/07/31 03:44:10;;;;;;;4.70;2.08;;;;;;;21.85;67.39;99666.13;4492474;31;33823;-74
2023/07/31 03:46:38;;;;;;;4.60;2.05;;;;;;;22.23;65.88;99665.09;4491921;31;33642;-75
2023/07/31 03:49:06;;;;;;;4.85;2.10;;;;;;;21.89;67.28;99665.25;4476097;31;34179;-75
2023/07/31 03:51:34;;;;;;;5.05;2.17;;;;;;;21.79;67.97;99665.25;4495512;31;33806;-75
2023/07/31 03:54:02;;;;;;;4.78;2.30;;;;;;;22.02;66.78;99666.94;4484491;31;34298;-74
2023/07/31 03:56:29;;;;;;;4.55;2.00;;;;;;;21.69;68.44;99674.09;4491060;31;33686;-74
2023/07/31 03:59:00;;;;;;;6.07;2.15;;;;;;;21.43;69.53;99662.69;4490777;31;32874;-75
2023/07/31 04:01:28;;;;;;;5.30;2.20;;;;;;;21.62;68.83;99661.78;4488635;31;34096;-74
2023/07/31 04:03:56;;;;;;;3.53;2.03;;;;;;;21.56;68.73;99670.59;4483271;31;34480;-74
2023/07/31 04:06:23;;;;;;;4.47;2.50;;;;;;;21.71;68.37;99661.78;4484396;31;33184;-74
2023/07/31 04:08:51;;;;;;;4.78;2.10;;;;;;;21.79;67.64;99665.25;4492843;31;33266;-74
2023/07/31 04:11:18;;;;;;;4.90;2.20;;;;;;;21.84;67.79;99667.00;4491904;31;32994;-75
2023/07/31 04:13:46;;;;;;;4.20;2.20;;;;;;;21.82;67.83;99668.78;4483097;32;34695;-74
2023/07/31 04:16:13;;;;;;;5.20;2.15;;;;;;;21.63;68.31;99658.25;4495477;31;33829;-74
2023/07/31 04:18:41;;;;;;;5.97;2.25;;;;;;;21.85;68.24;99658.22;4487440;31;33837;-74
2023/07/31 04:21:09;;;;;;;4.47;2.20;;;;;;;21.64;69.05;99659.16;4484540;31;34359;-75
2023/07/31 04:23:37;;;;;;;5.50;2.20;;;;;;;21.65;68.68;99668.81;4484682;31;34608;-75
2023/07/31 04:26:05;;;;;;;5.00;2.25;;;;;;;21.52;69.32;99665.34;4484152;31;34624;-74
2023/07/31 04:28:33;;;;;;;3.95;2.12;;;;;;;21.59;69.45;99661.78;4487247;31;33673;-75
2023/07/31 04:31:00;;;;;;;5.05;2.20;;;;;;;21.79;68.10;99667.91;4490699;31;33883;-75
2023/07/31 04:33:28;;;;;;;5.70;2.20;;;;;;;22.03;67.48;99663.41;4485640;31;33915;-74
2023/07/31 04:35:55;;;;;;;5.65;2.30;;;;;;;21.58;68.91;99660.06;4492787;31;33481;-74
2023/07/31 04:38:23;;;;;;;5.18;2.20;;;;;;;21.71;68.76;99667.06;4490918;31;33705;-74
2023/07/31 04:40:51;;;;;;;4.75;2.22;;;;;;;21.90;68.11;99666.97;4470961;31;32559;-74
2023/07/31 04:43:18;;;;;;;4.12;2.37;;;;;;;22.08;67.25;99666.00;4490754;31;33900;-75
2023/07/31 04:45:50;;;;;;;4.95;2.03;;;;;;;21.82;68.25;99658.22;4484282;31;33349;-74
2023/07/31 04:48:18;;;;;;;3.40;2.10;;;;;;;21.88;67.13;99658.19;4476324;32;32637;-74
2023/07/31 04:50:45;;;;;;;5.10;2.15;;;;;;;21.66;68.62;99658.25;4489290;31;33296;-75
2023/07/31 04:53:12;;;;;;;4.10;2.20;;;;;;;21.55;69.04;99660.03;4491415;31;33796;-75
2023/07/31 04:55:40;;;;;;;5.10;2.25;;;;;;;21.46;69.73;99673.22;4495399;31;34024;-74
2023/07/31 04:58:08;;;;;;;3.83;2.05;;;;;;;21.41;70.54;99674.09;4484794;31;33618;-74
2023/07/31 05:00:35;;;;;;;5.45;2.15;;;;;;;21.82;67.16;99669.62;4484647;31;33149;-75
2023/07/31 05:03:03;;;;;;;5.35;2.10;;;;;;;21.50;69.40;99667.97;4490104;31;34328;-74
2023/07/31 05:05:31;;;;;;;5.90;2.20;;;;;;;21.59;68.80;99667.97;4494459;31;33888;-74
2023/07/31 05:07:58;;;;;;;5.68;2.00;;;;;;;21.69;68.48;99668.81;4495066;31;34242;-75
2023/07/31 05:10:26;;;;;;;4.55;2.00;;;;;;;21.88;66.53;99663.47;4497860;31;34382;-75
2023/07/31 05:12:53;;;;;;;3.43;1.70;;;;;;;21.65;66.68;99672.31;4485520;31;34073;-74
2023/07/31 05:15:21;;;;;;;4.75;1.80;;;;;;;21.95;64.06;99659.94;4499912;31;33558;-74
2023/07/31 05:17:49;;;;;;;5.20;1.70;;;;;;;21.93;63.15;99653.78;4495109;31;34189;-74
2023/07/31 05:20:16;;;;;;;4.05;1.70;;;;;;;22.29;60.07;99649.25;4484470;31;33779;-74
2023/07/31 05:22:44;;;;;;;3.90;1.30;;;;;;;22.26;59.73;99660.69;4486136;31;33348;-74
2023/07/31 05:25:12;;;;;;;6.12;1.50;;;;;;;22.42;57.67;99656.22;4491243;31;33850;-74
2023/07/31 05:27:39;;;;;;;6.00;1.77;;;;;;;22.25;57.58;99653.69;4494952;31;34296;-75
2023/07/31 05:30:07;;;;;;;4.65;1.48;;;;;;;22.58;55.15;99657.87;4496833;31;32922;-74
2023/07/31 05:32:35;;;;;;;3.65;1.60;;;;;;;22.43;55.72;99665.03;4484711;31;33491;-74
2023/07/31 05:35:03;;;;;;;3.97;1.40;;;;;;;22.40;55.63;99657.97;4494186;31;34387;-74
2023/07/31 05:37:30;;;;;;;4.55;1.55;;;;;;;22.43;55.56;99657.97;4504519;31;33662;-74
2023/07/31 05:39:58;;;;;;;5.55;1.92;;;;;;;22.44;56.12;99657.06;4491160;31;33358;-74
2023/07/31 05:42:25;;;;;;;4.93;1.50;;;;;;;22.64;55.30;99666.63;4466004;31;32460;-74
2023/07/31 05:44:53;;;;;;;3.87;1.48;;;;;;;22.81;54.05;99650.69;4492261;31;33835;-73
2023/07/31 05:47:21;;;;;;;4.00;1.58;;;;;;;22.56;54.80;99661.41;4485205;31;33700;-75
2023/07/31 05:49:51;;;;;;;5.18;1.55;;;;;;;22.49;54.98;99665.84;4486940;31;33783;-74
2023/07/31 05:52:19;;;;;;;3.03;1.27;;;;;;;22.72;53.73;99659.56;4486772;31;32440;-75
2023/07/31 05:54:47;;;;;;;4.65;1.60;;;;;;;22.60;54.19;99675.47;4493696;31;34400;-74
2023/07/31 05:57:14;;;;;;;4.07;1.55;;;;;;;22.64;54.12;99669.28;4491648;31;34844;-75
2023/07/31 05:59:42;;;;;;;5.57;1.48;;;;;;;22.50;54.13;99667.63;4488064;31;34213;-75
2023/07/31 06:02:09;;;;;;;3.35;1.30;;;;;;;22.66;52.84;99660.47;4484207;31;34520;-75
2023/07/31 06:04:37;;;;;;;5.87;1.52;;;;;;;22.69;53.17;99664.84;4488032;31;34529;-74
2023/07/31 06:07:05;;;;;;;4.85;1.42;;;;;;;22.87;53.51;99675.28;4490470;31;33884;-75
2023/07/31 06:09:32;;;;;;;4.18;1.60;;;;;;;22.97;52.48;99658.47;4489912;31;33303;-75
2023/07/31 06:12:00;;;;;;;6.30;1.67;;;;;;;22.84;53.21;99675.31;4494009;31;32993;-74
2023/07/31 06:14:28;;;;;;;4.82;1.40;;;;;;;22.72;53.07;99675.41;4491209;31;34625;-75
2023/07/31 06:16:55;;;;;;;2.72;1.33;;;;;;;22.99;51.84;99665.53;4486452;31;34437;-75
2023/07/31 06:19:23;;;;;;;4.50;1.35;;;;;;;22.92;51.86;99670.84;4491816;31;33989;-75
2023/07/31 06:21:50;;;;;;;3.62;1.33;;;;;;;23.05;52.30;99678.72;4495430;31;33847;-75
2023/07/31 06:24:20;;;;;;;3.10;1.35;;;;;;;23.34;51.30;99665.25;4491158;31;34652;-76
2023/07/31 06:26:48;;;;;;;4.18;1.33;;;;;;;23.45;51.62;99673.06;4484905;31;33474;-75
2023/07/31 06:29:15;;;;;;;3.62;1.48;;;;;;;23.35;52.41;99661.69;4479360;31;33342;-75
2023/07/31 06:31:43;;;;;;;4.20;1.55;;;;;;;23.48;49.88;99667.75;4479586;31;33800;-74
2023/07/31 06:34:10;;;;;;;4.18;1.30;;;;;;;23.33;48.92;99653.81;4476606;31;33633;-74
2023/07/31 06:36:38;;;;;;;4.25;1.48;;;;;;;23.20;49.41;99673.31;4478997;31;33945;-76
2023/07/31 06:39:06;;;;;;;4.22;1.37;;;;;;;23.05;50.13;99670.78;4486906;31;33280;-74
2023/07/31 06:41:34;;;;;;;4.15;1.40;;;;;;;23.09;49.85;99675.16;4490898;31;34099;-75
2023/07/31 06:44:01;;;;;;;3.60;1.40;;;;;;;22.96;50.46;99675.19;4488237;31;33792;-75
2023/07/31 06:46:29;;;;;;;2.97;1.40;;;;;;;23.24;49.44;99669.75;4492010;31;34339;-76
2023/07/31 06:48:57;;;;;;;3.55;1.30;;;;;;;23.04;50.29;99679.59;4490709;31;34355;-76
2023/07/31 06:51:25;;;;;;;5.00;1.40;;;;;;;23.10;50.23;99676.91;4492846;31;35272;-76
2023/07/31 06:53:52;;;;;;;4.00;1.48;;;;;;;23.26;49.60;99677.66;4494610;31;34492;-75
2023/07/31 06:56:21;;;;;;;4.30;1.60;;;;;;;23.36;50.42;99689.88;4496083;31;33992;-75
2023/07/31 06:58:49;;;;;;;4.15;1.52;;;;;;;23.39;50.22;99686.34;4484993;31;33056;-74
2023/07/31 07:01:16;;;;;;;4.82;1.60;;;;;;;23.20;50.20;99694.44;4484734;31;33790;-76
2023/07/31 07:03:44;;;;;;;3.53;1.50;;;;;;;23.23;50.73;99699.69;4489855;31;33523;-75
2023/07/31 07:06:11;;;;;;;4.93;1.48;;;;;;;23.20;50.95;99693.53;4489536;31;34585;-74
2023/07/31 07:08:39;;;;;;;4.40;1.50;;;;;;;23.27;50.46;99690.84;4477880;31;33736;-75
2023/07/31 07:11:07;;;;;;;3.62;1.48;;;;;;;23.51;49.82;99694.16;4494834;31;33847;-75
2023/07/31 07:13:34;;;;;;;5.07;1.37;;;;;;;23.52;49.78;99696.78;4484757;31;33796;-75
2023/07/31 07:16:05;;;;;;;4.93;1.50;;;;;;;23.65;48.66;99696.66;4492345;31;34378;-73
2023/07/31 07:18:33;;;;;;;5.07;1.65;;;;;;;23.59;48.62;99699.38;4490796;31;32167;-74
2023/07/31 07:21:02;;;;;;;3.75;1.58;;;;;;;23.62;48.55;99700.19;4493681;31;33893;-74
2023/07/31 07:23:29;;;;;;;4.55;1.50;;;;;;;23.44;49.09;99697.75;4493099;31;33710;-74
2023/07/31 07:25:57;;;;;;;3.70;1.35;;;;;;;23.79;48.47;99694.78;4489344;31;33997;-75
2023/07/31 07:28:25;;;;;;;4.47;1.60;;;;;;;23.81;48.50;99697.41;4487583;31;33310;-75
2023/07/31 07:30:55;;;;;;;5.50;1.60;;;;;;;24.28;46.83;99704.78;4488840;31;34182;-75
2023/07/31 07:33:22;;;;;;;4.62;1.52;;;;;;;24.11;47.98;99691.75;4491402;31;33560;-75
2023/07/31 07:35:50;;;;;;;5.20;1.45;;;;;;;24.37;47.09;99708.22;4490877;31;34133;-75
2023/07/31 07:38:19;;;;;;;5.00;1.58;;;;;;;24.29;46.35;99703.00;4489836;31;33585;-75
2023/07/31 07:40:50;;;;;;;5.82;1.70;;;;;;;24.27;45.82;99702.16;4495100;31;33553;-75
2023/07/31 07:43:17;;;;;;;4.45;1.50;;;;;;;24.07;45.64;99694.47;4481414;31;33313;-75
2023/07/31 07:45:45;;;;;;;4.25;1.70;;;;;;;24.04;46.09;99700.66;4491591;31;33851;-75
2023/07/31 07:48:12;;;;;;;4.25;1.50;;;;;;;24.14;45.91;99702.31;4477918;31;32835;-75
2023/07/31 07:50:40;;;;;;;4.03;1.50;;;;;;;24.28;44.90;99710.09;4485724;31;33942;-75
2023/07/31 07:53:07;;;;;;;4.55;1.65;;;;;;;24.21;45.16;99703.13;4483657;31;32887;-75
2023/07/31 07:55:35;;;;;;;4.55;1.65;;;;;;;24.35;45.37;99702.94;4487089;31;33845;-75
2023/07/31 07:58:03;;;;;;;3.58;1.42;;;;;;;24.43;45.49;99703.69;4487119;31;32809;-75
2023/07/31 08:00:30;;;;;;;3.42;1.45;;;;;;;24.85;43.46;99704.03;4486784;31;34423;-75
2023/07/31 08:02:58;;;;;;;5.20;1.30;;;;;;;24.98;42.35;99695.91;4486945;31;33371;-75
2023/07/31 08:05:25;;;;;;;2.67;1.27;;;;;;;24.81;42.31;99699.66;4487990;31;33642;-74
2023/07/31 08:07:53;;;;;;;4.35;1.50;;;;;;;25.02;42.57;99697.59;4486134;31;33732;-75
2023/07/31 08:10:21;;;;;;;3.80;1.42;;;;;;;25.31;42.28;99705.09;4472351;31;32248;-76
2023/07/31 08:12:48;;;;;;;4.20;1.58;;;;;;;25.77;40.09;99703.37;4487186;31;33944;-75
2023/07/31 08:15:16;;;;;;;4.17;1.40;;;;;;;25.64;40.40;99700.97;4489474;31;32333;-75
2023/07/31 08:17:44;;;;;;;3.90;1.48;;;;;;;25.66;40.59;99696.50;4486380;31;32877;-75
2023/07/31 08:20:11;;;;;;;3.37;1.40;;;;;;;25.90;40.40;99699.59;4481680;31;34468;-75
2023/07/31 08:22:39;;;;;;;5.10;1.57;;;;;;;26.24;39.31;99704.25;4484675;31;34490;-75
2023/07/31 08:25:07;;;;;;;4.45;1.70;;;;;;;26.30;38.99;99704.13;4492055;31;33911;-76
2023/07/31 08:27:35;;;;;;;5.12;1.50;;;;;;;26.60;38.97;99712.37;4489056;31;33603;-75
2023/07/31 08:30:03;;;;;;;3.87;1.50;;;;;;;26.77;39.41;99710.22;4479145;31;33552;-75
2023/07/31 08:32:31;;;;;;;5.15;1.50;;;;;;;26.90;38.32;99707.25;4486046;31;33537;-76
2023/07/31 08:34:58;;;;;;;4.20;1.45;;;;;;;26.78;38.22;99717.25;4487898;31;33815;-75
2023/07/31 08:37:25;;;;;;;3.92;1.42;;;;;;;27.15;36.87;99707.53;4486635;31;32968;-76
2023/07/31 08:39:54;;;;;;;4.25;1.67;;;;;;;26.58;38.74;99703.50;4493534;31;33687;-75
2023/07/31 08:42:22;;;;;;;5.32;1.65;;;;;;;26.87;38.34;99706.44;4472243;31;32210;-75
2023/07/31 08:44:49;;;;;;;6.28;1.45;;;;;;;27.38;37.77;99701.69;4479900;31;33778;-75
2023/07/31 08:47:19;;;;;;;4.35;1.50;;;;;;;27.49;36.46;99699.62;4473274;31;33528;-76
2023/07/31 08:49:47;;;;;;;3.72;1.50;;;;;;;27.43;36.83;99691.81;4498325;31;33362;-76
2023/07/31 08:52:15;;;;;;;3.60;1.33;;;;;;;27.54;36.79;99699.47;4463293;32;33014;-76
2023/07/31 08:54:42;;;;;;;4.03;1.30;;;;;;;27.58;36.51;99698.47;4485607;31;33666;-75
2023/07/31 08:57:11;;;;;;;4.82;1.37;;;;;;;27.33;36.93;99703.56;4491052;31;33405;-76
2023/07/31 08:59:39;;;;;;;4.45;1.40;;;;;;;27.38;36.68;99696.34;4481087;31;34400;-76
2023/07/31 09:02:08;;;;;;;4.43;1.60;;;;;;;27.48;37.12;99697.84;4475961;31;33789;-76
2023/07/31 09:04:36;;;;;;;4.13;1.50;;;;;;;27.64;37.68;99704.53;4487248;31;33523;-75
2023/07/31 09:07:04;;;;;;;5.13;1.57;;;;;;;27.76;36.81;99695.34;4490791;31;33238;-76
2023/07/31 09:09:33;;;;;;;4.95;1.50;;;;;;;27.99;36.81;99699.16;4481330;31;34213;-76
2023/07/31 09:12:00;;;;;;;3.95;1.40;;;;;;;27.89;36.58;99687.03;4480956;31;33532;-76
2023/07/31 09:14:28;;;;;;;6.65;1.60;;;;;;;28.09;36.71;99684.69;4486056;31;35049;-76
2023/07/31 09:16:58;;;;;;;3.90;1.48;;;;;;;28.40;36.31;99687.31;4496386;31;33481;-75
2023/07/31 09:19:39;;;;;;;3.83;1.20;;;;;;;28.63;34.31;99683.09;4492781;31;34412;-76
2023/07/31 09:22:07;;;;;;;2.87;1.20;;;;;;;28.22;34.56;99687.84;4481031;31;33955;-75
2023/07/31 09:24:35;;;;;;;3.62;1.20;;;;;;;28.00;35.99;99680.47;4488032;31;33677;-76
2023/07/31 09:27:02;;;;;;;4.90;1.48;;;;;;;28.22;35.13;99679.84;4490208;31;33885;-75
2023/07/31 09:29:30;;;;;;;3.40;1.30;;;;;;;28.04;35.81;99671.50;4465257;31;33850;-76
2023/07/31 09:31:58;;;;;;;3.17;1.20;;;;;;;28.02;35.53;99670.66;4480570;31;34362;-76
2023/07/31 09:34:37;;;;;;;3.75;1.40;;;;;;;28.18;35.09;99665.78;4487678;31;33464;-76
2023/07/31 09:37:05;;;;;;;4.25;1.33;;;;;;;28.28;34.40;99669.03;4482798;31;32499;-76
2023/07/31 09:39:45;;;;;;;3.12;1.12;;;;;;;28.31;34.70;99668.06;4487421;31;34434;-78
2023/07/31 09:42:13;;;;;;;4.57;1.42;;;;;;;28.30;35.02;99661.88;4494319;31;32890;-75
2023/07/31 09:44:41;;;;;;;4.93;1.37;;;;;;;28.32;35.38;99665.37;4483532;31;34417;-76
2023/07/31 09:47:25;;;;;;;3.60;1.30;;;;;;;28.44;34.05;99662.31;4483224;31;33003;-75
2023/07/31 09:49:54;;;;;;;3.87;1.30;;;;;;;28.52;34.09;99661.25;4489683;31;33000;-76
2023/07/31 09:52:22;;;;;;;3.75;1.30;;;;;;;28.49;34.31;99658.63;4485704;31;33593;-76
2023/07/31 09:54:49;;;;;;;3.42;1.20;;;;;;;28.40;33.04;99666.00;4488123;31;34177;-75
2023/07/31 09:57:19;;;;;;;3.90;1.30;;;;;;;28.48;32.74;99656.91;4498429;31;33926;-77
2023/07/31 09:59:47;;;;;;;3.37;1.10;;;;;;;28.43;33.73;99657.91;4477511;31;34473;-76
2023/07/31 10:02:22;;;;;;;4.30;1.42;;;;;;;28.12;35.00;99652.63;4495698;31;34301;-76
2023/07/31 10:04:51;;;;;;;3.50;1.10;;;;;;;28.50;34.21;99663.06;4459990;31;777225;-76
2023/07/31 10:07:19;;;;;;;4.35;1.45;;;;;;;28.71;34.07;99667.72;4493676;31;33463;-76
2023/07/31 10:09:47;;;;;;;4.45;1.23;;;;;;;28.78;33.56;99663.06;4468595;31;33568;-76
2023/07/31 10:12:16;;;;;;;5.07;1.30;;;;;;;28.71;34.13;99669.53;4481200;31;33142;-76
2023/07/31 10:14:44;;;;;;;2.70;1.10;;;;;;;28.74;33.59;99672.09;4487021;31;34601;-76
2023/07/31 10:17:12;;;;;;;4.00;1.40;;;;;;;28.64;33.44;99666.19;4483093;31;32913;-76
2023/07/31 10:19:40;;;;;;;4.05;1.15;;;;;;;28.80;32.97;99662.12;4486780;31;33415;-77
2023/07/31 10:22:08;;;;;;;4.33;1.30;;;;;;;28.64;33.66;99668.84;4469392;31;34445;-77
2023/07/31 10:24:41;;;;;;;4.60;1.20;;;;;;;28.61;33.75;99674.28;4474465;31;33977;-76
2023/07/31 10:27:10;;;;;;;3.08;1.05;;;;;;;28.72;33.53;99666.78;4484598;31;32988;-77
2023/07/31 10:29:38;;;;;;;3.95;1.20;;;;;;;28.90;32.92;99661.81;4496479;31;33856;-76
2023/07/31 10:32:11;;;;;;;4.60;1.30;;;;;;;29.11;32.93;99660.22;4473745;31;33662;-76
2023/07/31 10:34:39;;;;;;;4.40;1.30;;;;;;;29.26;32.37;99658.84;4476324;31;34425;-76
2023/07/31 10:37:28;;;;;;;5.05;1.20;;;;;;;29.39;32.15;99650.37;4476717;31;33953;-76
2023/07/31 10:40:04;;;;;;;3.37;1.20;;;;;;;29.25;32.22;99659.81;4483978;31;33579;-76
2023/07/31 10:42:47;;;;;;;5.70;1.10;;;;;;;29.33;32.41;99649.72;4473461;31;33209;-76
2023/07/31 10:45:26;;;;;;;4.70;1.20;;;;;;;29.21;32.33;99643.87;4484526;31;32723;-75
2023/07/31 10:48:02;;;;;;;5.07;1.12;;;;;;;29.10;32.31;99647.81;4489591;31;30973;-75
2023/07/31 10:50:34;;;;;;;4.57;1.20;;;;;;;29.12;32.43;99645.97;4487697;31;33064;-75
2023/07/31 10:53:03;;;;;;;3.20;1.08;;;;;;;29.10;31.63;99640.69;4487170;31;33433;-76
2023/07/31 10:55:32;;;;;;;4.75;1.30;;;;;;;29.21;32.42;99641.22;4474108;31;34091;-75
2023/07/31 10:58:07;;;;;;;3.95;1.02;;;;;;;29.29;32.87;99648.97;4490788;31;34031;-75
2023/07/31 11:00:41;;;;;;;4.30;1.20;;;;;;;29.72;31.76;99651.91;4484672;31;31643;-76
2023/07/31 11:03:11;;;;;;;4.75;1.12;;;;;;;29.69;31.08;99644.88;4486068;31;33083;-76
2023/07/31 11:05:47;;;;;;;5.00;1.40;;;;;;;29.72;29.87;99642.13;4473971;31;33656;-75
2023/07/31 11:08:16;;;;;;;3.55;1.00;;;;;;;29.45;30.25;99638.59;4489728;31;33030;-76
2023/07/31 11:10:44;;;;;;;3.90;1.23;;;;;;;29.27;30.38;99632.12;4479630;31;33977;-77
2023/07/31 11:13:12;;;;;;;3.45;0.93;;;;;;;29.33;29.76;99633.72;4489714;31;33650;-75
2023/07/31 11:15:40;;;;;;;3.25;1.10;;;;;;;29.49;29.52;99636.72;4476379;31;34412;-76
2023/07/31 11:18:10;;;;;;;3.33;1.00;;;;;;;29.52;29.89;99629.47;4492753;31;33327;-75
2023/07/31 11:20:38;;;;;;;3.15;1.20;;;;;;;29.81;29.79;99624.91;4490848;31;33432;-78
2023/07/31 11:23:08;;;;;;;3.28;0.90;;;;;;;29.64;30.20;99624.62;4479873;31;34563;-77
2023/07/31 11:25:40;;;;;;;5.20;1.20;;;;;;;29.88;28.87;99615.75;4487273;31;33159;-75
2023/07/31 11:28:09;;;;;;;4.15;1.10;;;;;;;29.94;30.00;99612.84;4471615;31;35799;-76
2023/07/31 11:30:38;;;;;;;4.03;1.12;;;;;;;29.90;29.12;99611.22;4488904;31;32766;-76
2023/07/31 11:33:06;;;;;;;4.90;1.20;;;;;;;30.01;29.11;99615.25;4491374;31;33686;-76
2023/07/31 11:35:36;;;;;;;5.03;1.10;;;;;;;29.84;28.42;99618.56;4485462;31;33619;-76
2023/07/31 11:38:04;;;;;;;5.00;1.20;;;;;;;29.94;28.79;99604.81;4485255;31;31596;-76
2023/07/31 11:40:31;;;;;;;4.72;1.23;;;;;;;29.72;29.21;99610.06;4487733;31;33902;-76